createdAt,value
2019-02-10T00:01:20.711Z,2.20
2019-02-10T00:03:56.093Z,1.77
2019-02-10T00:06:31.526Z,1.87
2019-02-10T00:09:13.998Z,2.10
2019-02-10T00:11:45.287Z,1.50
2019-02-10T00:14:20.253Z,1.83
2019-02-10T00:16:56.433Z,1.97
2019-02-10T00:19:40.338Z,1.80
2019-02-10T00:22:20.680Z,2.17
2019-02-10T00:24:56.858Z,2.23
2019-02-10T00:27:32.044Z,2.50
2019-02-10T00:30:06.500Z,1.70
2019-02-10T00:32:44.162Z,1.90
2019-02-10T00:35:22.428Z,1.70
2019-02-10T00:38:00.264Z,2.27
2019-02-10T00:40:36.415Z,2.20
2019-02-10T00:43:14.594Z,1.57
2019-02-10T00:45:52.511Z,2.03
2019-02-10T00:48:40.690Z,1.90
2019-02-10T00:51:28.663Z,2.20
2019-02-10T00:54:19.555Z,1.97
2019-02-10T00:59:52.889Z,2.00
2019-02-10T01:02:33.216Z,1.70
2019-02-10T01:05:15.240Z,1.67
2019-02-10T01:07:51.709Z,1.90
2019-02-10T01:10:30.875Z,1.57
2019-02-10T01:13:14.529Z,1.90
2019-02-10T01:15:52.307Z,1.90
2019-02-10T01:19:08.711Z,1.93
2019-02-10T01:25:21.235Z,2.13
2019-02-10T01:28:00.768Z,1.70
2019-02-10T01:30:42.862Z,1.87
2019-02-10T01:33:19.776Z,1.80
2019-02-10T01:36:03.458Z,1.73
2019-02-10T01:38:40.363Z,1.57
2019-02-10T01:41:23.569Z,1.80
2019-02-10T01:44:00.670Z,1.43
2019-02-10T01:46:41.561Z,1.70
2019-02-10T01:49:30.171Z,2.07
2019-02-10T01:52:19.131Z,2.10
2019-02-10T01:55:01.755Z,1.70
2019-02-10T01:57:43.045Z,2.37
2019-02-10T02:00:22.647Z,1.87
2019-02-10T02:03:01.830Z,2.00
2019-02-10T02:05:42.929Z,1.73
2019-02-10T02:08:28.773Z,2.20
2019-02-10T02:11:04.062Z,2.27
2019-02-10T02:13:51.149Z,2.03
2019-02-10T02:16:30.805Z,2.08
2019-02-10T02:19:08.340Z,3.40
2019-02-10T02:21:43.529Z,6.30
2019-02-10T02:24:20.229Z,4.83
2019-02-10T02:26:59.947Z,3.13
2019-02-10T02:29:44.114Z,2.33
2019-02-10T02:32:23.750Z,2.07
2019-02-10T02:35:00.216Z,2.50
2019-02-10T02:37:37.184Z,4.80
2019-02-10T02:40:16.393Z,4.50
2019-02-10T02:42:55.953Z,4.40
2019-02-10T02:45:30.277Z,3.80
2019-02-10T02:48:04.970Z,4.10
2019-02-10T02:50:40.639Z,4.97
2019-02-10T02:53:19.817Z,6.07
2019-02-10T02:55:55.623Z,3.90
2019-02-10T02:58:32.068Z,4.00
2019-02-10T03:01:13.843Z,4.13
2019-02-10T03:03:48.421Z,4.13
2019-02-10T03:06:30.149Z,4.30
2019-02-10T03:09:05.422Z,4.73
2019-02-10T03:11:40.687Z,4.37
2019-02-10T03:14:18.017Z,4.20
2019-02-10T03:16:53.056Z,3.87
2019-02-10T03:19:29.735Z,5.33
2019-02-10T03:22:07.735Z,5.17
2019-02-10T03:24:46.439Z,5.10
2019-02-10T03:27:39.308Z,3.20
2019-02-10T03:30:18.359Z,3.09
2019-02-10T03:32:52.707Z,2.43
2019-02-10T03:35:31.309Z,2.63
2019-02-10T03:38:07.761Z,3.10
2019-02-10T03:40:44.011Z,2.30
2019-02-10T03:43:19.669Z,2.53
2019-02-10T03:45:54.880Z,2.80
2019-02-10T03:48:33.338Z,3.20
2019-02-10T03:51:07.623Z,5.00
2019-02-10T03:54:04.948Z,3.07
2019-02-10T03:57:08.633Z,4.13
2019-02-10T03:59:52.211Z,3.40
2019-02-10T04:02:31.784Z,4.60
2019-02-10T04:05:10.419Z,5.00
2019-02-10T04:07:48.338Z,4.77
2019-02-10T04:10:26.204Z,5.43
2019-02-10T04:13:00.796Z,5.27
2019-02-10T04:15:41.270Z,3.27
2019-02-10T04:18:16.897Z,4.30
2019-02-10T04:20:50.893Z,5.80
2019-02-10T04:23:31.974Z,5.33
2019-02-10T04:26:07.402Z,6.47
2019-02-10T04:28:42.949Z,6.43
2019-02-10T04:31:22.656Z,4.23
2019-02-10T04:33:57.059Z,2.83
2019-02-10T04:36:32.290Z,2.40
2019-02-10T04:39:07.418Z,3.30
2019-02-10T04:41:42.799Z,5.23
2019-02-10T04:44:22.083Z,5.03
2019-02-10T04:47:05.173Z,3.27
2019-02-10T04:49:42.549Z,3.40
2019-02-10T04:52:33.887Z,4.30
2019-02-10T04:55:10.329Z,3.33
2019-02-10T04:57:47.117Z,2.50
2019-02-10T05:00:21.573Z,2.27
2019-02-10T05:03:08.762Z,2.17
2019-02-10T05:05:56.098Z,2.00
2019-02-10T05:08:43.572Z,2.27
2019-02-10T05:11:22.713Z,2.20
2019-02-10T05:14:02.004Z,2.97
2019-02-10T05:16:36.737Z,3.17
2019-02-10T05:19:12.994Z,3.00
2019-02-10T05:21:53.668Z,2.60
2019-02-10T05:24:35.549Z,6.17
2019-02-10T05:27:12.823Z,7.10
2019-02-10T05:29:51.810Z,4.47
2019-02-10T05:32:27.795Z,4.07
2019-02-10T05:35:04.785Z,3.73
2019-02-10T05:37:40.459Z,3.60
2019-02-10T05:40:18.303Z,3.43
2019-02-10T05:42:55.842Z,3.57
2019-02-10T05:45:34.430Z,3.67
2019-02-10T05:48:19.460Z,4.13
2019-02-10T05:51:12.968Z,3.77
2019-02-10T05:53:50.138Z,4.20
2019-02-10T05:56:25.924Z,4.23
2019-02-10T05:59:00.407Z,4.57
2019-02-10T06:05:22.925Z,3.40
2019-02-10T06:07:59.388Z,3.70
2019-02-10T06:10:37.339Z,3.47
2019-02-10T06:13:14.413Z,4.47
2019-02-10T06:15:49.156Z,3.13
2019-02-10T06:18:26.490Z,3.83
2019-02-10T06:21:02.893Z,3.67
2019-02-10T06:23:44.306Z,3.47
2019-02-10T06:26:23.752Z,3.17
2019-02-10T06:29:06.385Z,3.37
2019-02-10T06:31:44.381Z,3.30
2019-02-10T06:34:19.601Z,4.60
2019-02-10T06:36:55.301Z,5.57
2019-02-10T06:39:41.046Z,5.40
2019-02-10T06:42:41.736Z,4.23
2019-02-10T06:45:18.031Z,3.90
2019-02-10T06:47:54.734Z,3.27
2019-02-10T06:50:33.695Z,3.33
2019-02-10T06:53:12.721Z,3.20
2019-02-10T06:55:54.804Z,3.80
2019-02-10T06:58:32.194Z,3.77
2019-02-10T07:01:32.064Z,4.37
2019-02-10T07:04:22.327Z,3.30
2019-02-10T07:06:58.209Z,3.40
2019-02-10T07:09:35.820Z,2.90
2019-02-10T07:12:48.281Z,2.63
2019-02-10T07:16:04.858Z,3.10
2019-02-10T07:19:16.197Z,3.27
2019-02-10T07:21:54.884Z,2.70
2019-02-10T07:25:00.947Z,2.50
2019-02-10T07:27:39.014Z,2.53
2019-02-10T07:30:43.752Z,2.17
2019-02-10T07:33:40.820Z,2.10
2019-02-10T07:36:41.579Z,1.97
2019-02-10T07:39:51.526Z,2.77
2019-02-10T07:42:56.374Z,2.37
2019-02-10T07:45:58.101Z,2.60
2019-02-10T07:49:35.262Z,3.30
2019-02-10T07:52:47.786Z,2.77
2019-02-10T07:55:49.729Z,2.70
2019-02-10T07:58:35.961Z,2.43
2019-02-10T08:01:39.291Z,2.77
2019-02-10T08:05:01.949Z,2.27
2019-02-10T08:08:22.742Z,2.50
2019-02-10T08:11:21.667Z,2.53
2019-02-10T08:14:29.098Z,2.70
2019-02-10T08:17:49.413Z,2.57
2019-02-10T08:20:52.723Z,2.67
2019-02-10T08:23:52.935Z,2.50
2019-02-10T08:26:46.860Z,2.20
2019-02-10T08:30:02.270Z,3.13
2019-02-10T08:32:51.290Z,2.87
2019-02-10T08:35:50.279Z,2.67
2019-02-10T08:39:04.397Z,2.57
2019-02-10T08:42:04.226Z,2.93
2019-02-10T08:45:17.374Z,2.80
2019-02-10T08:48:07.516Z,2.83
2019-02-10T08:51:36.036Z,2.83
2019-02-10T08:54:12.315Z,3.00
2019-02-10T08:56:48.052Z,3.07
2019-02-10T08:59:26.184Z,3.47
2019-02-10T09:02:04.877Z,4.00
2019-02-10T09:04:42.294Z,3.10
2019-02-10T09:07:20.769Z,3.50
2019-02-10T09:09:57.816Z,4.03
2019-02-10T09:12:38.865Z,3.10
2019-02-10T09:15:16.263Z,3.90
2019-02-10T09:17:51.162Z,3.43
2019-02-10T09:20:27.769Z,3.93
2019-02-10T09:23:04.238Z,2.67
2019-02-10T09:25:40.388Z,2.40
2019-02-10T09:28:20.159Z,2.40
2019-02-10T09:31:02.903Z,2.73
2019-02-10T09:33:52.060Z,2.43
2019-02-10T09:36:29.018Z,2.50
2019-02-10T09:39:10.684Z,2.50
2019-02-10T09:41:43.593Z,2.37
2019-02-10T09:44:19.871Z,2.70
2019-02-10T09:46:55.622Z,2.03
2019-02-10T09:49:34.732Z,2.40
2019-02-10T09:52:28.476Z,2.13
2019-02-10T09:55:05.960Z,2.27
2019-02-10T09:57:50.484Z,2.30
2019-02-10T10:00:27.637Z,2.07
2019-02-10T10:03:13.987Z,2.23
2019-02-10T10:05:51.738Z,1.90
2019-02-10T10:08:32.763Z,1.90
2019-02-10T10:11:12.705Z,1.90
2019-02-10T10:13:48.485Z,1.87
2019-02-10T10:16:24.052Z,2.10
2019-02-10T10:18:59.529Z,2.00
2019-02-10T10:21:35.883Z,2.27
2019-02-10T10:24:11.849Z,2.17
2019-02-10T10:26:49.075Z,2.17
2019-02-10T10:29:28.450Z,1.80
2019-02-10T10:32:06.640Z,2.23
2019-02-10T10:34:44.482Z,1.53
2019-02-10T10:37:36.078Z,1.83
2019-02-10T10:40:13.696Z,1.80
2019-02-10T10:42:57.808Z,2.00
2019-02-10T10:45:35.637Z,1.70
2019-02-10T10:48:14.619Z,1.53
2019-02-10T10:50:52.053Z,1.60
2019-02-10T10:53:28.184Z,1.80
2019-02-10T10:56:03.147Z,1.90
2019-02-10T10:58:40.004Z,1.80
2019-02-10T11:01:15.698Z,1.70
2019-02-10T11:03:50.509Z,1.33
2019-02-10T11:06:27.710Z,1.80
2019-02-10T11:09:07.969Z,1.70
2019-02-10T11:11:44.673Z,2.60
2019-02-10T11:14:20.695Z,1.63
2019-02-10T11:16:56.325Z,1.67
2019-02-10T11:19:37.032Z,2.10
2019-02-10T11:22:15.645Z,2.00
2019-02-10T11:24:51.217Z,2.20
2019-02-10T11:27:28.004Z,2.37
2019-02-10T11:30:03.903Z,2.47
2019-02-10T11:32:40.013Z,2.33
2019-02-10T11:35:20.076Z,2.40
2019-02-10T11:37:55.535Z,2.50
2019-02-10T11:40:35.424Z,2.13
2019-02-10T11:43:16.560Z,2.27
2019-02-10T11:45:52.559Z,2.17
2019-02-10T11:48:28.918Z,2.50
2019-02-10T11:51:05.880Z,1.87
2019-02-10T11:53:40.653Z,1.80
2019-02-10T11:56:16.409Z,1.80
2019-02-10T11:58:51.044Z,2.20
2019-02-10T12:01:25.515Z,2.00
2019-02-10T12:04:02.221Z,2.40
2019-02-10T12:06:38.708Z,2.00
2019-02-10T12:09:13.036Z,2.17
2019-02-10T12:12:07.883Z,1.83
2019-02-10T12:14:47.971Z,2.00
2019-02-10T12:17:26.579Z,1.80
2019-02-10T12:20:04.696Z,1.50
2019-02-10T12:22:40.504Z,1.60
2019-02-10T12:25:23.803Z,2.27
2019-02-10T12:28:00.060Z,1.43
2019-02-10T12:30:34.744Z,1.60
2019-02-10T12:33:09.917Z,1.67
2019-02-10T12:35:47.370Z,1.70
2019-02-10T12:38:24.128Z,1.77
2019-02-10T12:40:58.841Z,1.83
2019-02-10T12:43:34.019Z,1.80
2019-02-10T12:46:10.971Z,1.27
2019-02-10T12:48:45.734Z,1.73
2019-02-10T12:51:20.688Z,1.67
2019-02-10T12:53:59.692Z,1.50
2019-02-10T12:56:40.559Z,1.37
2019-02-10T12:59:26.951Z,0.97
2019-02-10T13:02:05.632Z,1.57
2019-02-10T13:04:41.640Z,1.70
2019-02-10T13:07:16.572Z,1.80
2019-02-10T13:09:56.695Z,1.53
2019-02-10T13:12:31.360Z,1.57
2019-02-10T13:15:09.088Z,1.40
2019-02-10T13:17:48.800Z,1.80
2019-02-10T13:20:25.359Z,1.93
2019-02-10T13:23:00.806Z,2.10
2019-02-10T13:25:35.711Z,1.73
2019-02-10T13:28:14.814Z,1.60
2019-02-10T13:30:50.687Z,1.40
2019-02-10T13:33:28.896Z,1.50
2019-02-10T13:36:05.718Z,1.53
2019-02-10T13:39:00.455Z,1.30
2019-02-10T13:41:48.826Z,1.40
2019-02-10T13:44:30.528Z,1.37
2019-02-10T13:47:06.634Z,1.40
2019-02-10T13:49:41.410Z,1.23
2019-02-10T13:52:16.268Z,1.20
2019-02-10T13:54:53.554Z,1.33
2019-02-10T13:57:30.075Z,1.50
2019-02-10T14:00:10.380Z,1.40
2019-02-10T14:02:46.311Z,1.30
2019-02-10T14:05:21.100Z,1.43
2019-02-10T14:08:04.891Z,1.10
2019-02-10T14:10:39.815Z,1.00
2019-02-10T14:13:14.118Z,1.33
2019-02-10T14:15:48.466Z,1.27
2019-02-10T14:18:26.145Z,1.40
2019-02-10T14:21:02.498Z,1.20
2019-02-10T14:23:53.809Z,1.20
2019-02-10T14:26:55.663Z,1.57
2019-02-10T14:29:34.773Z,1.17
2019-02-10T14:32:16.084Z,1.40
2019-02-10T14:35:08.202Z,1.00
2019-02-10T14:37:44.034Z,1.20
2019-02-10T14:40:20.726Z,1.30
2019-02-10T14:42:55.560Z,1.63
2019-02-10T14:45:30.622Z,1.40
2019-02-10T14:48:08.959Z,1.23
2019-02-10T14:50:46.543Z,1.30
2019-02-10T14:53:26.961Z,1.20
2019-02-10T14:56:02.433Z,1.37
2019-02-10T14:58:43.297Z,1.00
2019-02-10T15:01:23.452Z,1.20
2019-02-10T15:03:59.156Z,1.60
2019-02-10T15:06:37.384Z,1.30
2019-02-10T15:09:16.166Z,1.27
2019-02-10T15:11:52.087Z,1.20
2019-02-10T15:14:26.593Z,1.80
2019-02-10T15:17:01.824Z,1.13
2019-02-10T15:19:40.181Z,0.83
2019-02-10T15:22:17.476Z,1.10
2019-02-10T15:24:56.014Z,1.20
2019-02-10T15:27:40.637Z,0.93
2019-02-10T15:30:20.602Z,1.20
2019-02-10T15:32:56.272Z,1.03
2019-02-10T15:35:32.313Z,1.03
2019-02-10T15:38:11.133Z,1.30
2019-02-10T15:40:50.057Z,1.10
2019-02-10T15:43:27.437Z,1.03
2019-02-10T15:46:02.941Z,1.30
2019-02-10T15:48:38.801Z,1.20
2019-02-10T15:51:17.958Z,1.37
2019-02-10T15:53:52.997Z,1.17
2019-02-10T15:56:29.206Z,1.70
2019-02-10T15:59:08.050Z,1.53
2019-02-10T16:01:46.352Z,1.10
2019-02-10T16:04:20.723Z,1.10
2019-02-10T16:06:56.626Z,1.47
2019-02-10T16:09:32.544Z,1.60
2019-02-10T16:12:06.852Z,2.00
2019-02-10T16:14:42.204Z,1.20
2019-02-10T16:17:18.972Z,1.50
2019-02-10T16:19:53.701Z,1.27
2019-02-10T16:22:40.561Z,1.90
2019-02-10T16:25:21.959Z,1.37
2019-02-10T16:27:56.378Z,1.40
2019-02-10T16:30:33.427Z,1.30
2019-02-10T16:33:09.175Z,1.50
2019-02-10T16:35:51.004Z,1.73
2019-02-10T16:38:25.903Z,1.40
2019-02-10T16:41:06.134Z,1.70
2019-02-10T16:43:41.030Z,2.10
2019-02-10T16:46:29.824Z,2.00
2019-02-10T16:49:08.897Z,2.00
2019-02-10T16:51:47.707Z,2.20
2019-02-10T16:54:23.485Z,2.47
2019-02-10T16:57:08.585Z,2.40
2019-02-10T16:59:44.356Z,2.63
2019-02-10T17:02:19.225Z,3.40
2019-02-10T17:04:57.798Z,3.87
2019-02-10T17:07:38.429Z,4.77
2019-02-10T17:10:16.981Z,5.13
2019-02-10T17:12:51.933Z,6.33
2019-02-10T17:15:31.088Z,5.70
2019-02-10T17:18:07.083Z,6.00
2019-02-10T17:20:41.767Z,4.80
2019-02-10T17:23:16.556Z,5.17
2019-02-10T17:25:52.530Z,6.60
2019-02-10T17:28:29.533Z,7.17
2019-02-10T17:31:05.000Z,4.30
2019-02-10T17:33:45.927Z,5.70
2019-02-10T17:36:21.554Z,4.37
2019-02-10T17:38:59.831Z,5.80
2019-02-10T17:41:38.226Z,5.17
2019-02-10T17:44:18.171Z,3.13
2019-02-10T17:46:59.102Z,3.60
2019-02-10T17:49:50.708Z,3.23
2019-02-10T17:52:31.875Z,2.70
2019-02-10T17:55:02.550Z,3.07
2019-02-10T17:57:36.610Z,2.63
2019-02-10T18:00:18.467Z,2.60
2019-02-10T18:02:53.723Z,2.80
2019-02-10T18:05:35.119Z,3.43
2019-02-10T18:08:11.057Z,3.40
2019-02-10T18:10:51.276Z,3.73
2019-02-10T18:13:26.198Z,3.17
2019-02-10T18:16:34.887Z,3.33
2019-02-10T18:19:28.476Z,3.43
2019-02-10T18:22:21.022Z,3.30
2019-02-10T18:25:23.476Z,3.87
2019-02-10T18:28:23.562Z,3.10
2019-02-10T18:31:20.040Z,2.93
2019-02-10T18:34:13.391Z,3.57
2019-02-10T18:37:15.625Z,3.40
2019-02-10T18:40:18.711Z,3.27
2019-02-10T18:43:12.961Z,2.57
2019-02-10T18:46:27.984Z,2.97
2019-02-10T18:49:29.565Z,3.10
2019-02-10T18:52:29.426Z,4.13
2019-02-10T18:55:17.391Z,3.87
2019-02-10T18:58:02.366Z,3.70
2019-02-10T19:00:57.771Z,3.90
2019-02-10T19:04:11.251Z,4.00
2019-02-10T19:07:21.776Z,3.60
2019-02-10T19:10:19.337Z,3.80
2019-02-10T19:13:07.326Z,3.80
2019-02-10T19:16:09.323Z,3.70
2019-02-10T19:18:58.485Z,3.57
2019-02-10T19:21:51.177Z,3.80
2019-02-10T19:25:02.722Z,3.03
2019-02-10T19:28:01.757Z,3.10
2019-02-10T19:31:07.066Z,2.97
2019-02-10T19:34:00.221Z,2.70
2019-02-10T19:36:53.263Z,2.40
2019-02-10T19:40:10.812Z,2.60
2019-02-10T19:43:38.492Z,2.27
2019-02-10T19:46:30.652Z,2.13
2019-02-10T19:49:26.821Z,2.40
2019-02-10T19:52:39.056Z,2.83
2019-02-10T19:55:37.576Z,2.10
2019-02-10T19:58:42.580Z,2.00
2019-02-10T20:01:40.554Z,1.90
2019-02-10T20:04:36.929Z,2.30
2019-02-10T20:07:28.607Z,2.40
2019-02-10T20:10:30.828Z,2.53
2019-02-10T20:13:26.815Z,2.27
2019-02-10T20:16:23.490Z,2.50
2019-02-10T20:19:23.214Z,2.53
2019-02-10T20:22:22.624Z,2.87
2019-02-10T20:25:06.718Z,2.33
2019-02-10T20:28:00.153Z,3.10
2019-02-10T20:31:06.995Z,3.00
2019-02-10T20:34:16.985Z,2.33
2019-02-10T20:37:14.593Z,2.80
2019-02-10T20:43:22.044Z,2.50
2019-02-10T20:46:27.177Z,3.40
2019-02-10T20:49:28.613Z,3.30
2019-02-10T20:52:49.951Z,2.80
2019-02-10T20:56:08.429Z,3.43
2019-02-10T20:59:39.664Z,3.27
2019-02-10T21:02:41.103Z,2.53
2019-02-10T21:05:46.630Z,3.13
2019-02-10T21:08:51.409Z,3.30
2019-02-10T21:11:53.908Z,2.83
2019-02-10T21:15:02.655Z,3.30
2019-02-10T21:18:04.377Z,3.73
2019-02-10T21:20:57.229Z,2.97
2019-02-10T21:23:52.324Z,2.90
2019-02-10T21:27:03.184Z,3.23
2019-02-10T21:30:09.702Z,3.30
2019-02-10T21:33:16.999Z,2.87
2019-02-10T21:36:14.005Z,2.87
2019-02-10T21:39:18.972Z,3.00
2019-02-10T21:42:28.960Z,3.40
2019-02-10T21:45:12.743Z,3.33
2019-02-10T21:48:16.696Z,2.60
2019-02-10T21:50:48.893Z,2.60
2019-02-10T21:53:26.701Z,3.03
2019-02-10T21:56:03.341Z,3.30
2019-02-10T21:58:37.883Z,3.27
2019-02-10T22:01:15.918Z,2.63
2019-02-10T22:03:49.906Z,2.80
2019-02-10T22:06:26.081Z,2.17
2019-02-10T22:09:00.925Z,2.00
2019-02-10T22:11:35.432Z,2.00
2019-02-10T22:14:11.504Z,2.30
2019-02-10T22:16:46.749Z,2.30
2019-02-10T22:19:21.610Z,1.70
2019-02-10T22:21:59.564Z,2.30
2019-02-10T22:24:34.733Z,2.23
2019-02-10T22:27:09.114Z,3.07
2019-02-10T22:29:44.385Z,2.10
2019-02-10T22:32:23.879Z,2.03
2019-02-10T22:34:59.411Z,2.03
2019-02-10T22:37:34.408Z,2.00
2019-02-10T22:40:11.706Z,1.99
2019-02-10T22:42:47.069Z,1.57
2019-02-10T22:45:23.829Z,1.87
2019-02-10T22:47:59.062Z,1.90
2019-02-10T22:50:33.376Z,1.67
2019-02-10T22:53:18.997Z,1.70
2019-02-10T22:55:54.988Z,1.70
2019-02-10T22:58:30.837Z,1.60
2019-02-10T23:01:26.773Z,2.00
2019-02-10T23:04:07.551Z,1.73
2019-02-10T23:06:43.262Z,2.00
2019-02-10T23:09:28.720Z,1.50
2019-02-10T23:12:05.085Z,1.40
2019-02-10T23:14:41.129Z,1.90
2019-02-10T23:17:16.156Z,1.50
2019-02-10T23:19:54.073Z,1.80
2019-02-10T23:22:35.770Z,1.53
2019-02-10T23:25:15.083Z,1.70
2019-02-10T23:27:49.364Z,1.60
2019-02-10T23:30:26.701Z,1.60
2019-02-10T23:33:02.478Z,1.90
2019-02-10T23:35:37.076Z,1.70
2019-02-10T23:38:14.679Z,1.30
2019-02-10T23:40:53.757Z,1.40
2019-02-10T23:43:36.630Z,1.60
2019-02-10T23:46:11.910Z,1.50
2019-02-10T23:48:48.154Z,1.73
2019-02-10T23:51:27.798Z,1.60
2019-02-10T23:54:03.572Z,1.80
2019-02-10T23:56:46.935Z,1.50
2019-02-10T23:59:19.306Z,1.70
